Time;durP1;ratioP1;P1;durP2;ratioP2;P2;SDS_P1;SDS_P2;PMS_P1;PMS_P2;Temp;Humidity;BMP_temperature;BMP_pressure;BME280_temperature;BME280_humidity;BME280_pressure;Samples;Min_cycle;Max_cycle;Signal;HPM_P1;HPM_P2
2022/04/14 00:01:09;;;;;;;33.00;15.27;;;;;;;12.55;82.32;101942.69;5013715;28;20032;-42
2022/04/14 00:03:35;;;;;;;34.17;15.77;;;;;;;12.53;82.17;101945.44;5013433;28;20358;-42
2022/04/14 00:06:00;;;;;;;35.70;16.13;;;;;;;12.54;82.49;101946.25;5013573;28;20472;-42
2022/04/14 00:08:25;;;;;;;29.45;15.52;;;;;;;12.41;82.79;101939.03;5013253;28;20079;-42
2022/04/14 00:10:50;;;;;;;32.63;15.98;;;;;;;12.40;82.91;101942.63;4995718;28;20487;-45
2022/04/14 00:13:17;;;;;;;32.95;16.35;;;;;;;12.33;83.61;101933.91;5013213;28;20050;-42
2022/04/14 00:15:42;;;;;;;27.88;15.45;;;;;;;12.35;83.94;101934.53;5013521;28;20022;-42
2022/04/14 00:18:07;;;;;;;31.38;16.40;;;;;;;12.25;83.93;101934.72;5013188;28;20436;-42
2022/04/14 00:20:33;;;;;;;39.00;17.30;;;;;;;12.32;83.41;101927.09;4995553;28;20464;-42
2022/04/14 00:22:59;;;;;;;35.20;17.75;;;;;;;12.29;84.19;101925.66;5013423;28;20084;-43
2022/04/14 00:25:25;;;;;;;32.75;17.15;;;;;;;12.31;83.34;101921.09;5013348;28;20092;-43
2022/04/14 00:27:50;;;;;;;30.70;17.13;;;;;;;12.32;83.47;101917.53;5012856;28;20036;-43
2022/04/14 00:30:15;;;;;;;36.20;17.50;;;;;;;12.31;83.20;101925.47;5012735;28;20037;-41
2022/04/14 00:32:41;;;;;;;36.22;17.38;;;;;;;12.32;82.90;101924.50;4995475;28;20029;-42
2022/04/14 00:35:06;;;;;;;37.35;18.00;;;;;;;12.31;83.11;101923.69;4996420;28;20033;-41
2022/04/14 00:37:31;;;;;;;30.35;17.92;;;;;;;12.30;83.24;101918.69;5012939;28;20128;-42
2022/04/14 00:39:57;;;;;;;33.92;17.10;;;;;;;12.27;83.31;101919.03;5013205;28;20163;-42
2022/04/14 00:42:22;;;;;;;32.60;16.95;;;;;;;12.18;84.07;101916.47;5012944;28;20025;-41
2022/04/14 00:44:47;;;;;;;32.80;17.42;;;;;;;12.20;83.47;101918.91;5013248;28;20026;-41
2022/04/14 00:47:13;;;;;;;33.88;17.05;;;;;;;12.16;83.86;101921.00;5012815;28;20037;-41
2022/04/14 00:49:39;;;;;;;33.40;17.60;;;;;;;12.10;83.73;101918.28;4995618;28;20117;-41
2022/04/14 00:52:06;;;;;;;32.38;17.23;;;;;;;12.04;84.09;101895.66;5013060;28;20026;-41
2022/04/14 00:54:31;;;;;;;37.63;18.40;;;;;;;12.09;83.93;101909.72;4998050;28;20033;-41
2022/04/14 00:57:02;;;;;;;35.60;18.08;;;;;;;12.15;83.78;101910.81;4982564;28;20056;-41
2022/04/14 00:59:29;;;;;;;35.55;18.73;;;;;;;12.07;83.78;101913.44;5016598;28;20036;-41
2022/04/14 01:01:55;;;;;;;35.80;17.92;;;;;;;12.06;83.38;101898.91;4999212;28;20049;-42
2022/04/14 01:04:20;;;;;;;34.28;17.48;;;;;;;12.08;83.62;101907.28;4998569;28;20083;-41
2022/04/14 01:06:46;;;;;;;36.78;17.85;;;;;;;12.00;83.96;101915.09;4999440;28;20026;-42
2022/04/14 01:09:16;;;;;;;36.80;17.77;;;;;;;11.92;84.76;101910.78;5015932;28;20030;-41
2022/04/14 01:11:47;;;;;;;36.92;18.80;;;;;;;11.93;84.67;101918.34;5015933;28;20065;-42
2022/04/14 01:14:36;;;;;;;40.03;19.73;;;;;;;11.93;84.57;101922.72;5016210;28;20041;-43
2022/04/14 01:17:04;;;;;;;42.85;19.55;;;;;;;11.88;84.48;101915.47;5016658;28;20022;-42
2022/04/14 01:19:30;;;;;;;38.78;19.05;;;;;;;11.80;85.08;101912.09;5016218;28;20025;-42
2022/04/14 01:22:12;;;;;;;43.97;18.83;;;;;;;11.74;85.36;101918.75;5016761;28;20064;-48
2022/04/14 01:24:38;;;;;;;43.88;19.15;;;;;;;11.75;85.86;101923.72;5016193;28;20465;-41
2022/04/14 01:27:04;;;;;;;35.33;18.08;;;;;;;11.71;84.90;101911.31;4998295;28;20053;-43
2022/04/14 01:29:30;;;;;;;36.03;19.10;;;;;;;11.60;85.66;101917.63;4998217;28;20029;-41
2022/04/14 01:31:56;;;;;;;37.67;19.10;;;;;;;11.60;85.93;101935.75;5016051;28;20030;-41
2022/04/14 01:34:22;;;;;;;36.30;18.65;;;;;;;11.61;85.60;101928.78;5015973;28;20037;-42
2022/04/14 01:36:47;;;;;;;38.83;17.75;;;;;;;11.63;85.64;101938.00;5015646;28;20030;-42
2022/04/14 01:39:14;;;;;;;34.03;17.52;;;;;;;11.65;85.50;101941.25;5015550;28;20045;-41
2022/04/14 01:41:40;;;;;;;37.00;18.70;;;;;;;11.58;85.55;101934.31;5015744;28;20026;-42
2022/04/14 01:44:06;;;;;;;31.20;17.65;;;;;;;11.57;85.23;101938.69;5015464;28;20044;-41
2022/04/14 01:46:32;;;;;;;40.20;18.92;;;;;;;11.66;84.98;101944.66;4997784;28;20025;-41
2022/04/14 01:49:00;;;;;;;34.20;17.42;;;;;;;11.56;85.46;101944.00;5015306;28;20445;-42
2022/04/14 01:51:28;;;;;;;40.83;18.50;;;;;;;11.47;86.12;101936.25;4997709;28;20040;-42
2022/04/14 01:53:54;;;;;;;33.35;17.52;;;;;;;11.43;86.08;101936.75;4998184;28;20026;-42
2022/04/14 01:56:21;;;;;;;38.17;17.95;;;;;;;11.48;85.94;101937.88;5015234;28;20500;-42
2022/04/14 01:58:49;;;;;;;35.88;18.45;;;;;;;11.47;85.67;101944.00;5015373;28;20486;-42
2022/04/14 02:01:15;;;;;;;38.72;17.92;;;;;;;11.43;85.59;101950.50;5015045;28;20112;-42
2022/04/14 02:03:40;;;;;;;38.60;18.02;;;;;;;11.41;85.78;101952.44;5015269;28;20032;-42
2022/04/14 02:06:06;;;;;;;34.58;18.48;;;;;;;11.39;86.26;101956.16;5015031;28;20468;-42
2022/04/14 02:08:31;;;;;;;33.72;18.05;;;;;;;11.38;86.18;101952.78;5015627;28;20034;-41
2022/04/14 02:10:56;;;;;;;32.40;17.73;;;;;;;11.31;86.26;101949.22;4997288;28;20392;-47
2022/04/14 02:13:22;;;;;;;38.95;17.60;;;;;;;11.24;87.11;101953.44;5014967;28;20033;-42
2022/04/14 02:15:47;;;;;;;38.08;17.73;;;;;;;11.24;86.75;101956.81;5015303;28;20132;-41
2022/04/14 02:18:12;;;;;;;31.13;17.52;;;;;;;11.28;86.92;101955.53;5014778;28;20026;-42
2022/04/14 02:20:37;;;;;;;33.80;18.30;;;;;;;11.19;86.89;101948.75;4997133;28;20076;-41
2022/04/14 02:23:03;;;;;;;34.03;18.58;;;;;;;11.18;86.92;101946.31;5014680;28;20025;-42
2022/04/14 02:25:28;;;;;;;35.83;19.05;;;;;;;11.11;87.27;101951.34;5015321;28;20026;-41
2022/04/14 02:27:54;;;;;;;36.42;18.85;;;;;;;11.05;87.67;101951.97;5014830;28;20036;-42
2022/04/14 02:30:20;;;;;;;37.17;19.45;;;;;;;11.05;88.21;101947.63;5014478;28;20053;-42
2022/04/14 02:32:45;;;;;;;32.90;18.65;;;;;;;11.06;88.17;101956.19;4996826;28;20026;-41
2022/04/14 02:35:11;;;;;;;33.83;19.23;;;;;;;11.09;87.72;101948.09;4996849;28;20036;-41
2022/04/14 02:37:36;;;;;;;32.80;18.73;;;;;;;11.07;87.72;101947.44;5014484;28;20029;-40
2022/04/14 02:40:03;;;;;;;33.28;19.00;;;;;;;10.97;88.30;101945.03;5014517;28;20375;-41
2022/04/14 02:42:28;;;;;;;38.38;19.88;;;;;;;11.00;88.43;101944.69;5014378;28;20041;-41
2022/04/14 02:44:53;;;;;;;33.95;19.17;;;;;;;10.97;87.94;101954.56;5014709;28;20017;-41
2022/04/14 02:47:19;;;;;;;32.92;19.23;;;;;;;10.88;88.65;101946.00;5014294;28;20088;-41
2022/04/14 02:49:44;;;;;;;33.65;18.52;;;;;;;10.65;88.95;101956.13;5014349;28;20051;-42
2022/04/14 02:52:09;;;;;;;33.53;19.15;;;;;;;10.54;89.70;101954.66;5014331;28;20022;-41
2022/04/14 02:54:37;;;;;;;35.67;19.50;;;;;;;10.62;89.78;101956.44;5014504;28;20053;-41
2022/04/14 02:57:07;;;;;;;35.33;19.40;;;;;;;10.53;89.72;101950.44;5014156;28;20395;-41
2022/04/14 02:59:33;;;;;;;39.05;19.95;;;;;;;10.41;89.66;101950.88;5014093;28;20021;-41
2022/04/14 03:01:58;;;;;;;34.78;19.83;;;;;;;10.28;90.24;101949.56;5014028;28;20021;-41
2022/04/14 03:04:24;;;;;;;37.80;19.98;;;;;;;10.37;90.36;101950.41;5014759;28;20033;-41
2022/04/14 03:06:50;;;;;;;37.20;18.83;;;;;;;10.43;90.10;101951.56;5013960;28;20018;-41
2022/04/14 03:09:16;;;;;;;33.45;18.70;;;;;;;10.34;89.65;101956.69;5014059;28;20038;-41
2022/04/14 03:11:41;;;;;;;35.25;19.00;;;;;;;10.29;90.32;101961.50;4996220;28;20396;-41
2022/04/14 03:14:06;;;;;;;34.50;18.60;;;;;;;10.22;90.28;101960.50;5014079;28;20030;-42
2022/04/14 03:16:32;;;;;;;35.30;19.42;;;;;;;10.13;90.37;101961.44;5013284;28;20496;-41
2022/04/14 03:18:57;;;;;;;35.15;19.25;;;;;;;10.16;90.56;101966.28;4996348;28;20021;-42
2022/04/14 03:21:22;;;;;;;34.90;19.02;;;;;;;10.09;90.65;101960.91;5014328;28;20373;-42
2022/04/14 03:23:48;;;;;;;35.92;18.67;;;;;;;10.07;90.61;101964.59;5013865;28;20029;-41
2022/04/14 03:26:13;;;;;;;38.80;18.92;;;;;;;10.07;90.53;101956.84;4996226;28;20460;-41
2022/04/14 03:28:38;;;;;;;42.47;21.05;;;;;;;10.20;90.97;101954.66;5013764;28;20117;-42
2022/04/14 03:31:04;;;;;;;36.55;20.15;;;;;;;10.21;90.73;101956.28;4996238;28;20014;-42
2022/04/14 03:33:30;;;;;;;34.30;18.52;;;;;;;10.14;90.47;101963.84;5013760;28;20026;-63
2022/04/14 03:35:56;;;;;;;36.45;19.05;;;;;;;10.03;90.76;101951.19;4996022;28;20443;-41
2022/04/14 03:38:21;;;;;;;37.92;19.60;;;;;;;9.98;90.22;101960.38;5013665;28;20105;-42
2022/04/14 03:40:47;;;;;;;31.92;18.92;;;;;;;9.97;91.00;101956.19;5013812;28;20026;-41
2022/04/14 03:43:12;;;;;;;37.30;19.52;;;;;;;9.94;90.57;101968.44;5013491;28;20445;-42
2022/04/14 03:45:37;;;;;;;34.85;19.20;;;;;;;9.87;91.12;101970.00;5013464;28;20033;-41
2022/04/14 03:48:02;;;;;;;36.83;19.17;;;;;;;9.88;91.46;101969.03;5013375;28;20026;-42
2022/04/14 03:50:28;;;;;;;33.45;18.95;;;;;;;9.90;91.32;101959.38;5013446;28;20084;-42
2022/04/14 03:52:53;;;;;;;35.70;19.30;;;;;;;10.00;91.52;101969.59;5013711;28;20037;-41
2022/04/14 03:55:19;;;;;;;32.60;18.75;;;;;;;9.93;91.03;101964.22;5013688;28;20021;-41
2022/04/14 03:57:44;;;;;;;33.58;19.60;;;;;;;9.89;91.05;101962.91;5013599;28;20014;-42
2022/04/14 04:00:10;;;;;;;37.67;19.65;;;;;;;9.82;91.19;101967.06;5013356;28;20022;-41
2022/04/14 04:02:36;;;;;;;36.15;19.67;;;;;;;9.96;91.67;101972.66;5013656;28;20049;-40
2022/04/14 04:05:02;;;;;;;34.85;19.17;;;;;;;9.90;91.07;101964.53;4995756;28;20033;-41
2022/04/14 04:07:27;;;;;;;34.17;19.45;;;;;;;9.86;91.18;101962.41;5013795;28;20361;-40
2022/04/14 04:09:52;;;;;;;34.92;18.52;;;;;;;9.81;90.71;101964.63;5013085;28;20029;-42
2022/04/14 04:12:20;;;;;;;41.83;19.95;;;;;;;9.70;90.86;101969.09;5012987;28;20133;-41
2022/04/14 04:14:45;;;;;;;34.85;19.48;;;;;;;9.70;91.18;101966.53;5013180;28;20033;-50
2022/04/14 04:17:10;;;;;;;38.85;18.92;;;;;;;9.69;91.52;101966.66;5013249;28;20080;-40
2022/04/14 04:19:38;;;;;;;36.42;20.02;;;;;;;9.73;91.45;101973.16;4996165;28;20088;-42
2022/04/14 04:22:04;;;;;;;31.77;18.58;;;;;;;9.66;90.97;101969.53;5013169;28;20445;-41
2022/04/14 04:24:29;;;;;;;38.63;19.50;;;;;;;9.67;91.03;101966.03;4995676;28;20034;-42
2022/04/14 04:26:55;;;;;;;35.75;19.38;;;;;;;9.60;91.26;101973.53;5013638;28;20025;-42
2022/04/14 04:29:20;;;;;;;39.35;20.02;;;;;;;9.51;91.44;101968.50;5017233;28;20412;-41
2022/04/14 04:31:45;;;;;;;36.03;20.10;;;;;;;9.58;92.17;101970.31;5017189;28;20040;-42
2022/04/14 04:34:11;;;;;;;34.00;18.90;;;;;;;9.58;91.59;101977.22;5016737;28;20077;-42
2022/04/14 04:36:36;;;;;;;38.28;20.60;;;;;;;9.48;92.40;101975.56;5016992;28;20026;-42
2022/04/14 04:39:01;;;;;;;36.70;19.58;;;;;;;9.51;92.32;101978.81;5016581;28;20056;-41
2022/04/14 04:41:27;;;;;;;37.15;20.25;;;;;;;9.56;91.98;101981.75;5016788;28;20104;-42
2022/04/14 04:43:52;;;;;;;39.97;20.10;;;;;;;9.55;91.81;101977.53;5016772;28;20362;-42
2022/04/14 04:46:18;;;;;;;39.95;19.48;;;;;;;9.59;91.22;101982.25;5016814;28;20030;-42
2022/04/14 04:48:43;;;;;;;35.65;19.13;;;;;;;9.47;91.58;101986.03;5016717;28;20131;-41
2022/04/14 04:51:08;;;;;;;39.90;20.70;;;;;;;9.37;91.68;101986.13;5016398;28;20381;-42
2022/04/14 04:53:34;;;;;;;39.65;20.05;;;;;;;9.27;92.60;101987.97;5016535;28;20025;-43
2022/04/14 04:55:59;;;;;;;37.60;19.85;;;;;;;9.29;92.33;101987.81;4998846;28;20026;-41
2022/04/14 04:58:25;;;;;;;38.05;19.05;;;;;;;9.33;92.28;102004.63;4998712;28;20032;-41
2022/04/14 05:00:50;;;;;;;36.28;18.90;;;;;;;9.28;92.57;101994.75;4998643;28;20025;-42
2022/04/14 05:03:15;;;;;;;38.42;19.85;;;;;;;9.38;92.58;102008.41;5016393;28;20026;-41
2022/04/14 05:05:41;;;;;;;42.20;20.40;;;;;;;9.45;92.40;102006.81;5016330;28;20029;-41
2022/04/14 05:08:07;;;;;;;40.30;21.23;;;;;;;9.60;92.01;101996.78;4998466;28;20496;-42
2022/04/14 05:10:33;;;;;;;40.97;20.95;;;;;;;9.73;92.32;102000.75;5016239;28;20034;-42
2022/04/14 05:12:59;;;;;;;41.90;20.70;;;;;;;9.80;91.69;101999.97;5015859;28;20042;-41
2022/04/14 05:15:24;;;;;;;37.80;20.40;;;;;;;9.84;91.43;101993.56;5015861;28;20080;-42
2022/04/14 05:17:49;;;;;;;44.13;21.00;;;;;;;9.85;91.24;101996.94;5016187;28;20037;-41
2022/04/14 05:20:15;;;;;;;38.13;20.58;;;;;;;9.84;91.60;101992.72;4998323;28;20034;-42
2022/04/14 05:22:40;;;;;;;41.03;20.33;;;;;;;9.99;91.52;102003.31;5016330;28;20025;-41
2022/04/14 05:25:06;;;;;;;37.60;19.45;;;;;;;10.04;91.00;102007.06;5015799;28;20496;-41
2022/04/14 05:27:31;;;;;;;40.15;20.42;;;;;;;10.01;90.66;102017.72;5015595;28;20030;-41
2022/04/14 05:29:56;;;;;;;35.25;19.92;;;;;;;10.04;90.56;102019.16;5016155;28;20056;-42
2022/04/14 05:32:21;;;;;;;41.50;20.65;;;;;;;9.89;90.37;102026.66;5015936;28;20152;-41
2022/04/14 05:34:47;;;;;;;39.63;20.38;;;;;;;9.84;90.98;102027.13;5015567;28;20508;-41
2022/04/14 05:37:12;;;;;;;38.58;20.60;;;;;;;9.80;90.92;102012.88;5015565;28;20022;-41
2022/04/14 05:39:37;;;;;;;38.75;20.65;;;;;;;10.02;90.98;102032.22;5014842;28;20033;-42
2022/04/14 05:42:03;;;;;;;41.17;20.70;;;;;;;10.12;90.95;102024.38;5015405;28;20239;-42
2022/04/14 05:44:28;;;;;;;37.28;20.23;;;;;;;10.57;90.36;102033.66;5015926;28;20038;-42
2022/04/14 05:46:53;;;;;;;39.60;19.92;;;;;;;10.77;88.18;102021.28;5015978;28;20026;-42
2022/04/14 05:49:20;;;;;;;38.05;19.58;;;;;;;10.93;88.19;102031.63;5015213;28;20033;-41
2022/04/14 05:51:46;;;;;;;36.50;18.77;;;;;;;10.99;87.72;102040.53;5015533;28;20372;-41
2022/04/14 05:54:11;;;;;;;33.15;18.75;;;;;;;11.03;88.38;102031.53;5015188;28;20036;-41
2022/04/14 05:56:36;;;;;;;39.85;19.45;;;;;;;11.05;88.35;102029.59;5015204;28;20380;-41
2022/04/14 05:59:01;;;;;;;35.53;18.95;;;;;;;11.25;87.63;102035.28;5015183;28;20028;-41
2022/04/14 06:01:27;;;;;;;32.67;18.27;;;;;;;11.35;86.61;102032.53;4997035;28;20029;-41
2022/04/14 06:03:52;;;;;;;31.30;17.80;;;;;;;11.50;85.68;102030.91;5015405;28;20044;-42
2022/04/14 06:06:18;;;;;;;37.72;18.58;;;;;;;11.67;85.85;102037.69;5014764;28;20491;-42
2022/04/14 06:08:43;;;;;;;30.80;17.30;;;;;;;11.99;83.86;102043.00;5014844;28;20030;-42
2022/04/14 06:11:09;;;;;;;35.03;18.48;;;;;;;11.90;83.99;102042.22;5014187;28;20029;-42
2022/04/14 06:13:35;;;;;;;28.73;17.52;;;;;;;11.91;83.81;102038.66;5013788;28;20030;-51
2022/04/14 06:16:00;;;;;;;31.08;17.88;;;;;;;12.09;83.36;102041.06;5014131;28;20384;-44
2022/04/14 06:18:25;;;;;;;34.67;16.85;;;;;;;11.97;83.35;102035.44;5013380;28;20026;-41
2022/04/14 06:20:53;;;;;;;28.98;16.42;;;;;;;11.99;83.12;102035.25;5014014;28;20026;-41
2022/04/14 06:23:19;;;;;;;32.28;17.23;;;;;;;11.92;82.93;102035.09;5013583;28;20041;-42
2022/04/14 06:25:50;;;;;;;31.35;16.73;;;;;;;12.04;83.15;102038.16;5013794;28;20034;-42
2022/04/14 06:28:18;;;;;;;29.95;15.95;;;;;;;12.06;82.31;102031.03;5013724;28;20017;-42
2022/04/14 06:30:49;;;;;;;27.15;17.05;;;;;;;12.13;83.12;102044.91;5013737;28;20026;-42
2022/04/14 06:33:15;;;;;;;29.17;17.05;;;;;;;12.34;83.07;102054.72;5013490;28;20057;-42
2022/04/14 06:35:41;;;;;;;32.17;16.15;;;;;;;12.43;82.05;102053.75;5013246;28;20030;-42
2022/04/14 06:38:06;;;;;;;27.77;15.95;;;;;;;12.31;82.54;102061.06;4995644;28;20057;-41
2022/04/14 06:40:31;;;;;;;25.50;16.02;;;;;;;12.95;80.59;102060.97;5014042;28;20049;-41
2022/04/14 06:42:57;;;;;;;28.40;15.90;;;;;;;12.76;79.63;102057.00;5014642;28;20077;-41
2022/04/14 06:45:22;;;;;;;28.10;15.50;;;;;;;15.98;68.53;102057.38;5014296;28;20384;-42
2022/04/14 06:47:47;;;;;;;27.55;14.15;;;;;;;18.86;58.64;102053.63;5014467;28;20032;-42
2022/04/14 06:50:13;;;;;;;24.00;13.90;;;;;;;18.35;58.01;102051.03;4996393;28;20377;-42
2022/04/14 06:52:39;;;;;;;20.58;13.52;;;;;;;19.49;53.55;102037.03;5013108;28;20100;-42
2022/04/14 06:55:06;;;;;;;23.63;12.75;;;;;;;16.23;64.22;102050.69;5013552;28;20097;-41
2022/04/14 06:57:31;;;;;;;21.83;12.60;;;;;;;19.39;54.84;102050.63;5013868;28;20080;-41
2022/04/14 06:59:56;;;;;;;20.30;12.63;;;;;;;19.24;54.88;102059.81;5014147;28;20021;-42
2022/04/14 07:02:22;;;;;;;19.65;11.85;;;;;;;18.96;57.52;102062.81;5014088;28;20021;-41
2022/04/14 07:04:48;;;;;;;19.30;12.07;;;;;;;18.15;58.09;102066.81;5014615;28;20043;-42
2022/04/14 07:07:14;;;;;;;21.77;11.90;;;;;;;16.95;61.65;102060.81;5013478;28;20022;-43
2022/04/14 07:09:39;;;;;;;21.17;11.13;;;;;;;15.77;65.53;102069.47;5013703;28;20388;-42
2022/04/14 07:12:06;;;;;;;19.50;10.52;;;;;;;16.16;64.75;102067.28;5014352;28;20045;-42
2022/04/14 07:14:32;;;;;;;20.15;10.55;;;;;;;19.23;55.93;102066.09;5014640;28;20033;-43
2022/04/14 07:16:58;;;;;;;23.75;10.82;;;;;;;21.17;49.70;102067.09;5013983;28;20117;-42
2022/04/14 07:19:24;;;;;;;20.58;10.25;;;;;;;22.45;46.92;102080.44;5014236;28;20041;-41
2022/04/14 07:21:49;;;;;;;19.92;10.07;;;;;;;23.48;43.42;102075.03;5013515;28;20021;-42
2022/04/14 07:24:15;;;;;;;17.63;9.93;;;;;;;23.45;43.12;102066.78;5013915;28;20057;-42
2022/04/14 07:26:40;;;;;;;18.48;9.35;;;;;;;23.41;43.74;102072.56;5013618;28;20030;-41
2022/04/14 07:29:05;;;;;;;17.30;9.30;;;;;;;23.98;42.58;102063.59;5013933;28;20021;-42
2022/04/14 07:31:31;;;;;;;18.25;9.48;;;;;;;24.12;40.96;102063.22;5013650;28;20370;-42
2022/04/14 07:33:57;;;;;;;18.35;9.05;;;;;;;23.25;42.94;102076.03;5013693;28;20040;-42
2022/04/14 07:36:23;;;;;;;14.48;8.95;;;;;;;23.65;43.17;102069.75;4996061;28;20029;-42
2022/04/14 07:38:48;;;;;;;15.32;8.77;;;;;;;23.07;43.38;102068.34;4996020;28;20388;-43
2022/04/14 07:41:14;;;;;;;17.70;9.68;;;;;;;23.18;43.60;102068.25;5012378;28;20060;-41
2022/04/14 07:43:39;;;;;;;18.35;9.10;;;;;;;23.97;41.72;102067.28;5013152;28;20014;-42
2022/04/14 07:46:04;;;;;;;20.90;9.48;;;;;;;24.96;39.45;102068.03;5012189;28;20021;-42
2022/04/14 07:48:31;;;;;;;15.70;9.50;;;;;;;24.76;40.33;102066.00;5009912;28;20022;-42
2022/04/14 07:50:56;;;;;;;17.60;9.38;;;;;;;24.81;39.34;102070.56;4995805;28;20284;-43
2022/04/14 07:53:22;;;;;;;15.90;9.05;;;;;;;24.29;40.49;102064.72;4995984;28;20056;-42
2022/04/14 07:55:48;;;;;;;15.88;9.48;;;;;;;23.71;41.96;102070.63;5012468;28;20030;-41
2022/04/14 07:58:14;;;;;;;17.85;9.43;;;;;;;21.97;46.21;102078.91;5013433;28;20033;-42
2022/04/14 08:00:40;;;;;;;16.98;9.93;;;;;;;21.46;47.06;102080.41;5013597;28;20022;-43
2022/04/14 08:03:07;;;;;;;21.80;9.98;;;;;;;19.97;51.38;102082.81;5015520;28;20041;-43
2022/04/14 08:05:37;;;;;;;17.42;9.07;;;;;;;21.42;49.18;102091.63;5017645;28;20038;-42
2022/04/14 08:08:04;;;;;;;17.67;9.45;;;;;;;23.06;44.86;102083.34;5017247;28;20022;-43
2022/04/14 08:10:30;;;;;;;20.10;9.82;;;;;;;21.75;47.12;102075.28;5017217;28;20038;-43
2022/04/14 08:12:55;;;;;;;13.95;9.45;;;;;;;22.27;46.30;102075.34;5015856;28;20199;-42
2022/04/14 08:15:21;;;;;;;15.27;9.30;;;;;;;24.10;41.80;102074.81;5015943;28;20029;-42
2022/04/14 08:17:46;;;;;;;18.08;9.32;;;;;;;24.32;41.51;102074.81;5017426;28;20029;-43
2022/04/14 08:20:13;;;;;;;16.77;9.25;;;;;;;24.21;40.80;102077.59;5017181;28;20032;-42
2022/04/14 08:22:50;;;;;;;22.60;9.80;;;;;;;24.15;41.76;102087.28;5016908;28;20057;-43
2022/04/14 08:25:21;;;;;;;21.30;9.65;;;;;;;23.26;43.51;102087.38;5016952;28;20018;-43
2022/04/14 08:27:47;;;;;;;17.80;8.90;;;;;;;21.65;47.75;102075.88;5017247;28;20053;-42
2022/04/14 08:30:14;;;;;;;15.00;7.68;;;;;;;22.57;46.42;102077.75;5017245;28;20060;-42
2022/04/14 08:32:40;;;;;;;15.88;8.60;;;;;;;22.48;45.05;102082.59;4999305;28;20576;-42
2022/04/14 08:35:06;;;;;;;14.27;8.23;;;;;;;22.09;47.67;102076.25;5017434;28;20022;-42
2022/04/14 08:37:31;;;;;;;15.15;8.00;;;;;;;21.86;46.80;102079.72;4999386;28;20038;-43
2022/04/14 08:39:57;;;;;;;17.38;8.40;;;;;;;21.11;48.91;102078.53;5016990;28;20100;-42
2022/04/14 08:42:29;;;;;;;20.48;8.90;;;;;;;20.78;50.31;102067.72;5016133;28;20420;-43
2022/04/14 08:45:01;;;;;;;14.00;8.00;;;;;;;20.92;50.27;102071.75;5017275;28;20076;-42
2022/04/14 08:47:29;;;;;;;16.80;8.40;;;;;;;21.15;51.07;102077.06;5017565;28;20108;-43
2022/04/14 08:49:59;;;;;;;15.50;8.48;;;;;;;20.87;49.39;102077.69;5017260;28;20448;-43
2022/04/14 08:52:26;;;;;;;16.60;9.00;;;;;;;20.37;50.80;102072.66;5015882;28;20108;-41
2022/04/14 08:54:55;;;;;;;17.00;8.95;;;;;;;20.18;52.71;102064.00;4998402;28;20404;-42
2022/04/14 08:57:24;;;;;;;18.25;8.70;;;;;;;20.20;51.23;102046.22;5016302;28;20057;-42
2022/04/14 08:59:50;;;;;;;17.38;8.98;;;;;;;20.06;51.69;102061.31;5016764;28;20022;-42
2022/04/14 09:02:21;;;;;;;15.43;9.07;;;;;;;20.54;50.73;102062.34;5016677;28;20045;-42
2022/04/14 09:04:46;;;;;;;15.32;8.70;;;;;;;20.30;50.38;102061.44;5016888;28;20026;-42
2022/04/14 09:07:13;;;;;;;13.95;8.07;;;;;;;20.61;50.32;102059.66;5016255;28;20037;-42
2022/04/14 09:09:39;;;;;;;16.45;8.07;;;;;;;20.47;50.38;102062.41;5016112;28;20033;-42
2022/04/14 09:12:05;;;;;;;12.05;7.50;;;;;;;20.92;49.16;102074.38;5015757;28;20046;-42
2022/04/14 09:14:34;;;;;;;18.17;8.57;;;;;;;21.22;48.64;102076.94;5015023;28;20084;-42
2022/04/14 09:17:02;;;;;;;16.50;8.45;;;;;;;21.33;49.35;102073.53;5015698;28;20101;-44
2022/04/14 09:19:32;;;;;;;13.43;8.13;;;;;;;21.03;48.74;102072.78;4982337;28;20080;-42
2022/04/14 09:22:01;;;;;;;11.75;7.20;;;;;;;21.38;48.58;102065.00;5016256;28;20461;-42
2022/04/14 09:24:39;;;;;;;14.77;7.97;;;;;;;20.37;49.40;102066.59;5015416;28;20040;-42
2022/04/14 09:27:05;;;;;;;14.35;7.35;;;;;;;19.91;51.91;102073.16;5015642;28;20054;-42
2022/04/14 09:29:30;;;;;;;11.70;7.10;;;;;;;21.23;48.67;102068.03;5016348;28;20057;-42
2022/04/14 09:31:55;;;;;;;12.73;6.88;;;;;;;21.02;49.10;102074.63;5016072;28;20021;-41
2022/04/14 09:34:51;;;;;;;12.60;7.00;;;;;;;21.33;49.63;102080.63;5015855;28;20033;-42
2022/04/14 09:37:18;;;;;;;13.50;7.20;;;;;;;20.99;48.19;102082.97;5015713;28;20022;-41
2022/04/14 09:39:56;;;;;;;14.52;7.30;;;;;;;21.39;48.16;102085.00;4998612;28;20026;-43
2022/04/14 09:42:26;;;;;;;13.75;7.15;;;;;;;21.46;48.03;102093.56;5016256;28;20101;-41
2022/04/14 09:44:52;;;;;;;11.77;6.80;;;;;;;21.21;47.96;102091.13;4998996;28;20030;-42
2022/04/14 09:47:36;;;;;;;10.43;6.70;;;;;;;21.50;48.95;102093.94;5015444;28;20029;-42
2022/04/14 09:50:02;;;;;;;11.25;6.35;;;;;;;22.13;47.17;102095.84;5015463;28;20026;-42
2022/04/14 09:52:28;;;;;;;9.23;5.57;;;;;;;22.25;47.04;102098.47;5016618;28;20033;-42
2022/04/14 09:55:07;;;;;;;11.85;6.57;;;;;;;21.95;46.71;102085.44;5015399;28;20526;-40
2022/04/14 09:57:33;;;;;;;8.77;6.25;;;;;;;22.51;45.98;102103.19;5015768;28;20022;-42
2022/04/14 09:59:58;;;;;;;9.05;5.10;;;;;;;22.71;45.79;102109.88;5015228;28;20374;-42
2022/04/14 10:02:26;;;;;;;7.25;4.93;;;;;;;22.01;46.13;102098.50;4997031;28;20057;-40
2022/04/14 10:04:51;;;;;;;9.02;5.97;;;;;;;21.25;48.72;102099.34;5015209;28;20395;-41
2022/04/14 10:07:19;;;;;;;11.68;5.32;;;;;;;20.71;49.19;102096.69;4998029;28;20036;-41
2022/04/14 10:09:51;;;;;;;10.35;5.18;;;;;;;22.17;47.15;102101.44;5014930;28;20092;-41
2022/04/14 10:12:19;;;;;;;8.13;5.00;;;;;;;22.81;46.48;102098.72;4996875;28;20155;-41
2022/04/14 10:15:02;;;;;;;9.10;4.70;;;;;;;22.05;47.46;102106.72;5013346;28;20092;-41
2022/04/14 10:17:29;;;;;;;10.73;5.90;;;;;;;22.15;46.95;102096.38;5013157;28;20036;-42
2022/04/14 10:19:54;;;;;;;7.80;5.00;;;;;;;21.70;47.68;102096.22;5013380;28;20367;-41
2022/04/14 10:22:20;;;;;;;7.63;4.72;;;;;;;21.48;47.99;102094.16;5013607;28;20101;-42
2022/04/14 10:24:46;;;;;;;9.82;5.00;;;;;;;21.71;47.81;102093.34;4995464;28;20042;-42
2022/04/14 10:27:14;;;;;;;7.38;4.38;;;;;;;22.58;44.86;102089.06;4994897;28;20484;-42
2022/04/14 10:29:41;;;;;;;8.27;5.07;;;;;;;22.06;48.06;102095.94;5012529;28;20045;-41
2022/04/14 10:32:07;;;;;;;7.78;5.00;;;;;;;23.00;44.96;102096.69;5014293;28;20045;-41
2022/04/14 10:34:34;;;;;;;9.65;5.18;;;;;;;22.61;45.44;102096.50;4995468;28;20044;-41
2022/04/14 10:37:02;;;;;;;10.40;5.22;;;;;;;22.87;44.13;102088.03;4995652;28;20643;-42
2022/04/14 10:39:29;;;;;;;9.15;5.32;;;;;;;23.55;43.20;102093.34;5013313;28;20468;-41
2022/04/14 10:41:55;;;;;;;9.73;5.75;;;;;;;23.07;45.13;102099.97;5012624;28;20040;-41
2022/04/14 10:44:22;;;;;;;11.80;6.03;;;;;;;22.37;44.58;102108.97;5012890;28;20473;-42
2022/04/14 10:46:51;;;;;;;8.10;5.75;;;;;;;22.61;44.90;102099.94;5012981;28;20108;-41
2022/04/14 10:49:23;;;;;;;9.52;5.40;;;;;;;23.28;43.77;102101.91;5013058;28;20504;-42
2022/04/14 10:51:50;;;;;;;;;;;;;;;23.29;43.81;102102.72;5014474;28;20147;-41
2022/04/14 10:54:18;;;;;;;14.50;6.20;;;;;;;22.72;45.03;102091.19;5013725;28;19909;-42
2022/04/14 10:56:46;;;;;;;10.98;6.32;;;;;;;23.46;44.50;102098.22;5013759;28;20029;-41
2022/04/14 10:59:19;;;;;;;10.50;6.20;;;;;;;23.78;42.32;102090.50;4996061;28;20026;-42
2022/04/14 11:01:48;;;;;;;8.45;6.10;;;;;;;23.29;43.36;102097.44;5013705;28;20532;-43
2022/04/14 11:04:41;;;;;;;12.05;6.30;;;;;;;22.84;43.26;102088.47;5014183;28;20169;-43
2022/04/14 11:07:21;;;;;;;7.63;6.05;;;;;;;22.98;43.50;102099.56;5014113;28;20048;-43
2022/04/14 11:09:59;;;;;;;10.23;6.63;;;;;;;22.74;44.82;102112.03;5014024;28;20026;-41
2022/04/14 11:12:45;;;;;;;10.25;6.82;;;;;;;22.58;45.61;102104.88;5013800;28;20092;-41